sensor_id;sensor_type;location;lat;lon;timestamp;P1;durP1;ratioP1;P2;durP2;ratioP2
12867;SDS011;33517;49.866;8.320;2023-06-22T00:01:54;2.10;;;1.88;;
12867;SDS011;33517;49.866;8.320;2023-06-22T00:04:46;2.97;;;1.70;;
12867;SDS011;33517;49.866;8.320;2023-06-22T00:07:38;1.77;;;1.67;;
12867;SDS011;33517;49.866;8.320;2023-06-22T00:10:29;1.65;;;1.52;;
12867;SDS011;33517;49.866;8.320;2023-06-22T00:13:21;3.03;;;1.83;;
12867;SDS011;33517;49.866;8.320;2023-06-22T00:16:15;2.25;;;2.00;;
12867;SDS011;33517;49.866;8.320;2023-06-22T00:19:07;3.42;;;2.08;;
12867;SDS011;33517;49.866;8.320;2023-06-22T00:22:02;1.98;;;1.80;;
12867;SDS011;33517;49.866;8.320;2023-06-22T00:24:54;2.67;;;1.80;;
12867;SDS011;33517;49.866;8.320;2023-06-22T00:27:46;2.20;;;1.90;;
12867;SDS011;33517;49.866;8.320;2023-06-22T00:30:38;2.35;;;2.10;;
12867;SDS011;33517;49.866;8.320;2023-06-22T00:33:32;4.18;;;2.33;;
12867;SDS011;33517;49.866;8.320;2023-06-22T00:36:23;2.17;;;1.65;;
12867;SDS011;33517;49.866;8.320;2023-06-22T00:39:15;3.63;;;1.90;;
12867;SDS011;33517;49.866;8.320;2023-06-22T00:42:07;1.67;;;1.58;;
12867;SDS011;33517;49.866;8.320;2023-06-22T00:44:59;2.75;;;1.80;;
12867;SDS011;33517;49.866;8.320;2023-06-22T00:47:51;2.70;;;2.33;;
12867;SDS011;33517;49.866;8.320;2023-06-22T00:50:45;2.63;;;1.98;;
12867;SDS011;33517;49.866;8.320;2023-06-22T00:53:40;3.25;;;2.22;;
12867;SDS011;33517;49.866;8.320;2023-06-22T00:56:33;4.25;;;1.83;;
12867;SDS011;33517;49.866;8.320;2023-06-22T00:59:27;2.30;;;2.10;;
12867;SDS011;33517;49.866;8.320;2023-06-22T01:02:20;4.93;;;2.08;;
12867;SDS011;33517;49.866;8.320;2023-06-22T01:05:12;2.67;;;1.83;;
12867;SDS011;33517;49.866;8.320;2023-06-22T01:08:08;1.55;;;1.35;;
12867;SDS011;33517;49.866;8.320;2023-06-22T01:11:08;2.22;;;1.83;;
12867;SDS011;33517;49.866;8.320;2023-06-22T01:14:06;2.72;;;1.98;;
12867;SDS011;33517;49.866;8.320;2023-06-22T01:17:02;1.63;;;1.52;;
12867;SDS011;33517;49.866;8.320;2023-06-22T01:19:56;2.05;;;1.85;;
12867;SDS011;33517;49.866;8.320;2023-06-22T01:26:04;2.80;;;1.83;;
12867;SDS011;33517;49.866;8.320;2023-06-22T01:29:01;3.38;;;2.60;;
12867;SDS011;33517;49.866;8.320;2023-06-22T01:31:55;3.00;;;2.45;;
12867;SDS011;33517;49.866;8.320;2023-06-22T01:34:48;2.15;;;1.95;;
12867;SDS011;33517;49.866;8.320;2023-06-22T01:37:41;3.80;;;2.67;;
12867;SDS011;33517;49.866;8.320;2023-06-22T01:40:33;3.17;;;2.70;;
12867;SDS011;33517;49.866;8.320;2023-06-22T01:43:26;3.80;;;2.50;;
12867;SDS011;33517;49.866;8.320;2023-06-22T01:46:19;3.10;;;2.40;;
12867;SDS011;33517;49.866;8.320;2023-06-22T01:49:12;3.70;;;2.40;;
12867;SDS011;33517;49.866;8.320;2023-06-22T01:52:04;5.78;;;3.63;;
12867;SDS011;33517;49.866;8.320;2023-06-22T01:54:57;2.80;;;2.40;;
12867;SDS011;33517;49.866;8.320;2023-06-22T01:57:49;2.90;;;2.65;;
12867;SDS011;33517;49.866;8.320;2023-06-22T02:00:43;4.07;;;3.45;;
12867;SDS011;33517;49.866;8.320;2023-06-22T02:03:42;4.28;;;3.05;;
12867;SDS011;33517;49.866;8.320;2023-06-22T02:06:38;6.70;;;4.18;;
12867;SDS011;33517;49.866;8.320;2023-06-22T02:09:33;4.97;;;3.90;;
12867;SDS011;33517;49.866;8.320;2023-06-22T02:12:26;3.28;;;2.45;;
12867;SDS011;33517;49.866;8.320;2023-06-22T02:15:20;4.40;;;3.53;;
12867;SDS011;33517;49.866;8.320;2023-06-22T02:18:12;9.55;;;5.78;;
12867;SDS011;33517;49.866;8.320;2023-06-22T02:21:06;3.58;;;3.00;;
12867;SDS011;33517;49.866;8.320;2023-06-22T02:23:58;4.50;;;2.80;;
12867;SDS011;33517;49.866;8.320;2023-06-22T02:26:50;3.80;;;3.03;;
12867;SDS011;33517;49.866;8.320;2023-06-22T02:29:42;10.43;;;5.25;;
12867;SDS011;33517;49.866;8.320;2023-06-22T02:32:33;4.65;;;3.20;;
12867;SDS011;33517;49.866;8.320;2023-06-22T02:35:25;3.60;;;3.05;;
12867;SDS011;33517;49.866;8.320;2023-06-22T02:38:23;11.70;;;8.02;;
12867;SDS011;33517;49.866;8.320;2023-06-22T02:41:15;3.95;;;2.75;;
12867;SDS011;33517;49.866;8.320;2023-06-22T02:44:08;3.67;;;2.67;;
12867;SDS011;33517;49.866;8.320;2023-06-22T02:47:00;4.15;;;2.83;;
12867;SDS011;33517;49.866;8.320;2023-06-22T02:49:52;4.97;;;4.15;;
12867;SDS011;33517;49.866;8.320;2023-06-22T02:52:44;3.17;;;2.83;;
12867;SDS011;33517;49.866;8.320;2023-06-22T02:55:37;5.20;;;3.45;;
12867;SDS011;33517;49.866;8.320;2023-06-22T02:58:30;6.57;;;4.75;;
12867;SDS011;33517;49.866;8.320;2023-06-22T03:01:23;6.88;;;4.65;;
12867;SDS011;33517;49.866;8.320;2023-06-22T03:04:15;4.22;;;3.42;;
12867;SDS011;33517;49.866;8.320;2023-06-22T03:07:07;5.18;;;3.88;;
12867;SDS011;33517;49.866;8.320;2023-06-22T03:09:59;8.50;;;6.75;;
12867;SDS011;33517;49.866;8.320;2023-06-22T03:12:52;21.92;;;12.77;;
12867;SDS011;33517;49.866;8.320;2023-06-22T03:15:44;25.92;;;16.83;;
12867;SDS011;33517;49.866;8.320;2023-06-22T03:18:36;7.05;;;4.82;;
12867;SDS011;33517;49.866;8.320;2023-06-22T03:21:28;15.27;;;4.88;;
12867;SDS011;33517;49.866;8.320;2023-06-22T03:24:20;3.88;;;3.03;;
12867;SDS011;33517;49.866;8.320;2023-06-22T03:27:12;5.60;;;3.70;;
12867;SDS011;33517;49.866;8.320;2023-06-22T03:30:06;4.55;;;3.13;;
12867;SDS011;33517;49.866;8.320;2023-06-22T03:32:59;6.90;;;3.92;;
12867;SDS011;33517;49.866;8.320;2023-06-22T03:35:51;8.75;;;5.45;;
12867;SDS011;33517;49.866;8.320;2023-06-22T03:38:44;11.35;;;6.95;;
12867;SDS011;33517;49.866;8.320;2023-06-22T03:41:36;4.10;;;3.25;;
12867;SDS011;33517;49.866;8.320;2023-06-22T03:44:27;4.53;;;3.33;;
12867;SDS011;33517;49.866;8.320;2023-06-22T03:47:20;8.07;;;3.65;;
12867;SDS011;33517;49.866;8.320;2023-06-22T03:50:12;6.10;;;4.22;;
12867;SDS011;33517;49.866;8.320;2023-06-22T03:53:05;8.93;;;5.85;;
12867;SDS011;33517;49.866;8.320;2023-06-22T03:55:57;4.85;;;2.88;;
12867;SDS011;33517;49.866;8.320;2023-06-22T03:58:48;2.47;;;2.28;;
12867;SDS011;33517;49.866;8.320;2023-06-22T04:01:41;3.85;;;2.70;;
12867;SDS011;33517;49.866;8.320;2023-06-22T04:04:34;4.70;;;2.78;;
12867;SDS011;33517;49.866;8.320;2023-06-22T04:07:26;3.10;;;2.78;;
12867;SDS011;33517;49.866;8.320;2023-06-22T04:10:17;6.97;;;3.88;;
12867;SDS011;33517;49.866;8.320;2023-06-22T04:13:09;3.88;;;2.90;;
12867;SDS011;33517;49.866;8.320;2023-06-22T04:16:01;3.10;;;2.78;;
12867;SDS011;33517;49.866;8.320;2023-06-22T04:18:53;8.43;;;3.13;;
12867;SDS011;33517;49.866;8.320;2023-06-22T04:21:46;4.95;;;3.83;;
12867;SDS011;33517;49.866;8.320;2023-06-22T04:24:38;4.40;;;3.40;;
12867;SDS011;33517;49.866;8.320;2023-06-22T04:27:30;5.30;;;3.65;;
12867;SDS011;33517;49.866;8.320;2023-06-22T04:30:22;3.28;;;2.80;;
12867;SDS011;33517;49.866;8.320;2023-06-22T04:33:14;3.78;;;2.47;;
12867;SDS011;33517;49.866;8.320;2023-06-22T04:36:06;3.83;;;2.80;;
12867;SDS011;33517;49.866;8.320;2023-06-22T04:38:59;3.92;;;2.88;;
12867;SDS011;33517;49.866;8.320;2023-06-22T04:41:51;4.38;;;3.03;;
12867;SDS011;33517;49.866;8.320;2023-06-22T04:44:43;5.13;;;2.88;;
12867;SDS011;33517;49.866;8.320;2023-06-22T04:47:35;3.45;;;2.90;;
12867;SDS011;33517;49.866;8.320;2023-06-22T04:50:29;3.10;;;2.60;;
12867;SDS011;33517;49.866;8.320;2023-06-22T04:53:21;3.50;;;3.20;;
12867;SDS011;33517;49.866;8.320;2023-06-22T04:56:14;4.78;;;3.50;;
12867;SDS011;33517;49.866;8.320;2023-06-22T04:59:08;3.80;;;3.20;;
12867;SDS011;33517;49.866;8.320;2023-06-22T05:02:03;2.85;;;2.38;;
12867;SDS011;33517;49.866;8.320;2023-06-22T05:04:56;5.45;;;4.38;;
12867;SDS011;33517;49.866;8.320;2023-06-22T05:07:49;9.75;;;5.78;;
12867;SDS011;33517;49.866;8.320;2023-06-22T05:10:43;5.35;;;3.72;;
12867;SDS011;33517;49.866;8.320;2023-06-22T05:13:36;3.38;;;3.08;;
12867;SDS011;33517;49.866;8.320;2023-06-22T05:16:28;3.65;;;2.97;;
12867;SDS011;33517;49.866;8.320;2023-06-22T05:19:20;3.97;;;3.35;;
12867;SDS011;33517;49.866;8.320;2023-06-22T05:22:11;4.38;;;3.40;;
12867;SDS011;33517;49.866;8.320;2023-06-22T05:25:04;3.42;;;2.45;;
12867;SDS011;33517;49.866;8.320;2023-06-22T05:27:57;3.33;;;3.05;;
12867;SDS011;33517;49.866;8.320;2023-06-22T05:30:50;4.72;;;3.08;;
12867;SDS011;33517;49.866;8.320;2023-06-22T05:33:42;7.13;;;3.97;;
12867;SDS011;33517;49.866;8.320;2023-06-22T05:36:35;3.15;;;2.85;;
12867;SDS011;33517;49.866;8.320;2023-06-22T05:39:27;6.32;;;3.88;;
12867;SDS011;33517;49.866;8.320;2023-06-22T05:42:19;5.43;;;3.42;;
12867;SDS011;33517;49.866;8.320;2023-06-22T05:45:11;4.93;;;3.83;;
12867;SDS011;33517;49.866;8.320;2023-06-22T05:48:04;4.80;;;3.42;;
12867;SDS011;33517;49.866;8.320;2023-06-22T05:50:56;4.50;;;3.05;;
12867;SDS011;33517;49.866;8.320;2023-06-22T05:53:48;4.70;;;3.08;;
12867;SDS011;33517;49.866;8.320;2023-06-22T05:56:40;4.30;;;3.42;;
12867;SDS011;33517;49.866;8.320;2023-06-22T05:59:32;3.15;;;2.85;;
12867;SDS011;33517;49.866;8.320;2023-06-22T06:02:24;5.05;;;3.65;;
12867;SDS011;33517;49.866;8.320;2023-06-22T06:05:18;4.38;;;3.15;;
12867;SDS011;33517;49.866;8.320;2023-06-22T06:08:09;4.13;;;3.28;;
12867;SDS011;33517;49.866;8.320;2023-06-22T06:11:02;6.32;;;3.78;;
12867;SDS011;33517;49.866;8.320;2023-06-22T06:13:54;4.25;;;3.47;;
12867;SDS011;33517;49.866;8.320;2023-06-22T06:16:46;4.07;;;2.95;;
12867;SDS011;33517;49.866;8.320;2023-06-22T06:19:38;6.00;;;4.25;;
12867;SDS011;33517;49.866;8.320;2023-06-22T06:22:31;6.70;;;4.03;;
12867;SDS011;33517;49.866;8.320;2023-06-22T06:25:22;9.95;;;4.00;;
12867;SDS011;33517;49.866;8.320;2023-06-22T06:28:15;4.22;;;3.72;;
12867;SDS011;33517;49.866;8.320;2023-06-22T06:31:07;4.97;;;3.53;;
12867;SDS011;33517;49.866;8.320;2023-06-22T06:33:59;5.32;;;3.58;;
12867;SDS011;33517;49.866;8.320;2023-06-22T06:36:51;4.38;;;3.83;;
12867;SDS011;33517;49.866;8.320;2023-06-22T06:39:44;4.25;;;3.83;;
12867;SDS011;33517;49.866;8.320;2023-06-22T06:42:36;4.03;;;3.40;;
12867;SDS011;33517;49.866;8.320;2023-06-22T06:45:30;5.45;;;3.88;;
12867;SDS011;33517;49.866;8.320;2023-06-22T06:48:24;4.97;;;3.35;;
12867;SDS011;33517;49.866;8.320;2023-06-22T06:51:16;4.47;;;3.40;;
12867;SDS011;33517;49.866;8.320;2023-06-22T06:54:08;3.80;;;3.30;;
12867;SDS011;33517;49.866;8.320;2023-06-22T06:57:02;5.97;;;3.67;;
12867;SDS011;33517;49.866;8.320;2023-06-22T06:59:54;4.57;;;3.08;;
12867;SDS011;33517;49.866;8.320;2023-06-22T07:02:47;4.47;;;3.63;;
12867;SDS011;33517;49.866;8.320;2023-06-22T07:05:39;5.03;;;3.55;;
12867;SDS011;33517;49.866;8.320;2023-06-22T07:08:31;3.72;;;3.10;;
12867;SDS011;33517;49.866;8.320;2023-06-22T07:11:23;3.75;;;3.30;;
12867;SDS011;33517;49.866;8.320;2023-06-22T07:14:16;3.85;;;3.33;;
12867;SDS011;33517;49.866;8.320;2023-06-22T07:17:07;6.75;;;3.50;;
12867;SDS011;33517;49.866;8.320;2023-06-22T07:19:59;5.03;;;3.47;;
12867;SDS011;33517;49.866;8.320;2023-06-22T07:22:52;4.80;;;3.10;;
12867;SDS011;33517;49.866;8.320;2023-06-22T07:25:43;4.00;;;2.60;;
12867;SDS011;33517;49.866;8.320;2023-06-22T07:28:35;5.13;;;3.10;;
12867;SDS011;33517;49.866;8.320;2023-06-22T07:31:29;5.85;;;3.10;;
12867;SDS011;33517;49.866;8.320;2023-06-22T07:34:21;4.00;;;3.28;;
12867;SDS011;33517;49.866;8.320;2023-06-22T07:37:13;3.90;;;3.10;;
12867;SDS011;33517;49.866;8.320;2023-06-22T07:40:06;3.92;;;2.95;;
12867;SDS011;33517;49.866;8.320;2023-06-22T07:43:00;3.85;;;3.05;;
12867;SDS011;33517;49.866;8.320;2023-06-22T07:45:52;6.53;;;3.53;;
12867;SDS011;33517;49.866;8.320;2023-06-22T07:48:45;3.30;;;3.00;;
12867;SDS011;33517;49.866;8.320;2023-06-22T07:51:37;4.13;;;3.60;;
12867;SDS011;33517;49.866;8.320;2023-06-22T07:54:29;4.07;;;3.35;;
12867;SDS011;33517;49.866;8.320;2023-06-22T07:57:21;3.78;;;3.35;;
12867;SDS011;33517;49.866;8.320;2023-06-22T08:00:15;5.82;;;4.45;;
12867;SDS011;33517;49.866;8.320;2023-06-22T08:03:09;11.20;;;4.45;;
12867;SDS011;33517;49.866;8.320;2023-06-22T08:06:03;4.47;;;2.95;;
12867;SDS011;33517;49.866;8.320;2023-06-22T08:09:02;9.63;;;4.00;;
12867;SDS011;33517;49.866;8.320;2023-06-22T08:11:56;4.70;;;3.50;;
12867;SDS011;33517;49.866;8.320;2023-06-22T08:14:48;7.47;;;3.30;;
12867;SDS011;33517;49.866;8.320;2023-06-22T08:17:40;5.78;;;3.35;;
12867;SDS011;33517;49.866;8.320;2023-06-22T08:20:33;5.22;;;3.95;;
12867;SDS011;33517;49.866;8.320;2023-06-22T08:23:26;3.80;;;3.08;;
12867;SDS011;33517;49.866;8.320;2023-06-22T08:26:18;4.00;;;2.72;;
12867;SDS011;33517;49.866;8.320;2023-06-22T08:29:10;3.58;;;3.13;;
12867;SDS011;33517;49.866;8.320;2023-06-22T08:32:02;5.05;;;3.45;;
12867;SDS011;33517;49.866;8.320;2023-06-22T08:34:54;3.85;;;3.05;;
12867;SDS011;33517;49.866;8.320;2023-06-22T08:37:47;4.40;;;3.30;;
12867;SDS011;33517;49.866;8.320;2023-06-22T08:40:44;3.45;;;3.05;;
12867;SDS011;33517;49.866;8.320;2023-06-22T08:43:36;4.65;;;3.55;;
12867;SDS011;33517;49.866;8.320;2023-06-22T08:46:28;3.85;;;3.42;;
12867;SDS011;33517;49.866;8.320;2023-06-22T08:49:23;3.72;;;3.15;;
12867;SDS011;33517;49.866;8.320;2023-06-22T08:52:15;4.93;;;3.50;;
12867;SDS011;33517;49.866;8.320;2023-06-22T08:55:09;4.95;;;3.65;;
12867;SDS011;33517;49.866;8.320;2023-06-22T08:58:02;4.43;;;3.33;;
12867;SDS011;33517;49.866;8.320;2023-06-22T09:00:55;3.95;;;3.15;;
12867;SDS011;33517;49.866;8.320;2023-06-22T09:03:47;10.95;;;4.00;;
12867;SDS011;33517;49.866;8.320;2023-06-22T09:06:45;4.63;;;3.63;;
12867;SDS011;33517;49.866;8.320;2023-06-22T09:09:37;4.32;;;3.65;;
12867;SDS011;33517;49.866;8.320;2023-06-22T09:12:29;4.97;;;2.70;;
12867;SDS011;33517;49.866;8.320;2023-06-22T09:15:22;3.67;;;3.33;;
12867;SDS011;33517;49.866;8.320;2023-06-22T09:18:15;4.32;;;3.50;;
12867;SDS011;33517;49.866;8.320;2023-06-22T09:21:07;3.67;;;3.22;;
12867;SDS011;33517;49.866;8.320;2023-06-22T09:23:58;6.35;;;3.20;;
12867;SDS011;33517;49.866;8.320;2023-06-22T09:26:50;3.55;;;2.90;;
12867;SDS011;33517;49.866;8.320;2023-06-22T09:29:42;5.15;;;3.08;;
12867;SDS011;33517;49.866;8.320;2023-06-22T09:32:35;5.88;;;3.50;;
12867;SDS011;33517;49.866;8.320;2023-06-22T09:35:30;3.38;;;2.90;;
12867;SDS011;33517;49.866;8.320;2023-06-22T09:38:21;4.10;;;3.53;;
12867;SDS011;33517;49.866;8.320;2023-06-22T09:41:13;5.85;;;3.22;;
12867;SDS011;33517;49.866;8.320;2023-06-22T09:44:06;6.82;;;3.60;;
12867;SDS011;33517;49.866;8.320;2023-06-22T09:46:58;3.55;;;2.80;;
12867;SDS011;33517;49.866;8.320;2023-06-22T09:49:51;4.35;;;3.08;;
12867;SDS011;33517;49.866;8.320;2023-06-22T09:52:43;3.40;;;2.80;;
12867;SDS011;33517;49.866;8.320;2023-06-22T09:55:37;3.50;;;2.80;;
12867;SDS011;33517;49.866;8.320;2023-06-22T09:58:28;3.13;;;2.53;;
12867;SDS011;33517;49.866;8.320;2023-06-22T10:01:20;3.80;;;3.35;;
12867;SDS011;33517;49.866;8.320;2023-06-22T10:04:13;3.35;;;2.92;;
12867;SDS011;33517;49.866;8.320;2023-06-22T10:07:06;3.90;;;2.92;;
12867;SDS011;33517;49.866;8.320;2023-06-22T10:09:58;2.70;;;2.50;;
12867;SDS011;33517;49.866;8.320;2023-06-22T10:12:55;4.30;;;2.83;;
12867;SDS011;33517;49.866;8.320;2023-06-22T10:15:48;4.88;;;3.00;;
12867;SDS011;33517;49.866;8.320;2023-06-22T10:18:41;3.75;;;3.10;;
12867;SDS011;33517;49.866;8.320;2023-06-22T10:21:33;3.00;;;2.70;;
12867;SDS011;33517;49.866;8.320;2023-06-22T10:24:26;2.88;;;2.60;;
12867;SDS011;33517;49.866;8.320;2023-06-22T10:27:18;2.80;;;2.42;;
12867;SDS011;33517;49.866;8.320;2023-06-22T10:30:11;2.45;;;2.25;;
12867;SDS011;33517;49.866;8.320;2023-06-22T10:33:04;3.50;;;2.78;;
12867;SDS011;33517;49.866;8.320;2023-06-22T10:35:55;2.63;;;2.42;;
12867;SDS011;33517;49.866;8.320;2023-06-22T10:38:47;2.78;;;2.45;;
12867;SDS011;33517;49.866;8.320;2023-06-22T10:41:40;4.25;;;2.65;;
12867;SDS011;33517;49.866;8.320;2023-06-22T10:44:32;2.63;;;2.40;;
12867;SDS011;33517;49.866;8.320;2023-06-22T10:47:24;3.30;;;2.38;;
12867;SDS011;33517;49.866;8.320;2023-06-22T10:50:16;3.40;;;2.47;;
12867;SDS011;33517;49.866;8.320;2023-06-22T10:53:08;2.60;;;2.08;;
12867;SDS011;33517;49.866;8.320;2023-06-22T10:56:00;2.95;;;2.67;;
12867;SDS011;33517;49.866;8.320;2023-06-22T10:58:53;3.58;;;2.40;;
12867;SDS011;33517;49.866;8.320;2023-06-22T11:01:44;3.28;;;2.83;;
12867;SDS011;33517;49.866;8.320;2023-06-22T11:04:37;3.90;;;2.80;;
12867;SDS011;33517;49.866;8.320;2023-06-22T11:07:29;2.85;;;2.55;;
12867;SDS011;33517;49.866;8.320;2023-06-22T11:10:21;3.03;;;2.63;;
12867;SDS011;33517;49.866;8.320;2023-06-22T11:13:13;3.50;;;2.78;;
12867;SDS011;33517;49.866;8.320;2023-06-22T11:16:06;3.38;;;2.80;;
12867;SDS011;33517;49.866;8.320;2023-06-22T11:18:58;6.75;;;3.30;;
12867;SDS011;33517;49.866;8.320;2023-06-22T11:21:50;6.22;;;2.78;;
12867;SDS011;33517;49.866;8.320;2023-06-22T11:24:42;5.00;;;2.50;;
12867;SDS011;33517;49.866;8.320;2023-06-22T11:27:34;3.22;;;2.55;;
12867;SDS011;33517;49.866;8.320;2023-06-22T11:30:25;5.40;;;3.28;;
12867;SDS011;33517;49.866;8.320;2023-06-22T11:33:19;3.00;;;2.67;;
12867;SDS011;33517;49.866;8.320;2023-06-22T11:36:11;4.57;;;2.70;;
12867;SDS011;33517;49.866;8.320;2023-06-22T11:39:03;3.17;;;2.88;;
12867;SDS011;33517;49.866;8.320;2023-06-22T11:41:55;4.43;;;2.88;;
12867;SDS011;33517;49.866;8.320;2023-06-22T11:44:47;3.65;;;3.00;;
12867;SDS011;33517;49.866;8.320;2023-06-22T11:47:39;2.80;;;2.58;;
12867;SDS011;33517;49.866;8.320;2023-06-22T11:50:32;2.65;;;2.45;;
12867;SDS011;33517;49.866;8.320;2023-06-22T11:53:26;3.85;;;2.50;;
12867;SDS011;33517;49.866;8.320;2023-06-22T11:56:18;6.70;;;3.22;;
12867;SDS011;33517;49.866;8.320;2023-06-22T11:59:10;4.43;;;3.17;;
12867;SDS011;33517;49.866;8.320;2023-06-22T12:02:02;2.88;;;2.47;;
12867;SDS011;33517;49.866;8.320;2023-06-22T12:04:55;6.95;;;2.75;;
12867;SDS011;33517;49.866;8.320;2023-06-22T12:07:49;2.70;;;2.45;;
12867;SDS011;33517;49.866;8.320;2023-06-22T12:10:41;2.65;;;2.45;;
12867;SDS011;33517;49.866;8.320;2023-06-22T12:13:33;4.45;;;2.72;;
12867;SDS011;33517;49.866;8.320;2023-06-22T12:16:25;3.75;;;3.13;;
12867;SDS011;33517;49.866;8.320;2023-06-22T12:19:17;3.90;;;2.88;;
12867;SDS011;33517;49.866;8.320;2023-06-22T12:22:09;4.68;;;2.67;;
12867;SDS011;33517;49.866;8.320;2023-06-22T12:25:02;3.63;;;2.83;;
12867;SDS011;33517;49.866;8.320;2023-06-22T12:27:54;2.90;;;2.53;;
12867;SDS011;33517;49.866;8.320;2023-06-22T12:30:45;5.05;;;3.13;;
12867;SDS011;33517;49.866;8.320;2023-06-22T12:33:37;3.60;;;3.10;;
12867;SDS011;33517;49.866;8.320;2023-06-22T12:36:37;4.22;;;3.05;;
12867;SDS011;33517;49.866;8.320;2023-06-22T12:39:29;4.32;;;2.85;;
12867;SDS011;33517;49.866;8.320;2023-06-22T12:42:21;5.60;;;3.00;;
12867;SDS011;33517;49.866;8.320;2023-06-22T12:45:13;4.72;;;2.60;;
12867;SDS011;33517;49.866;8.320;2023-06-22T12:48:05;3.58;;;2.72;;
12867;SDS011;33517;49.866;8.320;2023-06-22T12:50:58;4.32;;;3.00;;
12867;SDS011;33517;49.866;8.320;2023-06-22T12:53:52;4.75;;;3.97;;
12867;SDS011;33517;49.866;8.320;2023-06-22T12:56:43;9.93;;;3.10;;
12867;SDS011;33517;49.866;8.320;2023-06-22T12:59:35;3.80;;;3.05;;
12867;SDS011;33517;49.866;8.320;2023-06-22T13:02:27;5.55;;;2.85;;
12867;SDS011;33517;49.866;8.320;2023-06-22T13:05:19;3.50;;;2.75;;
12867;SDS011;33517;49.866;8.320;2023-06-22T13:08:11;4.57;;;2.35;;
12867;SDS011;33517;49.866;8.320;2023-06-22T13:11:05;4.00;;;2.60;;
12867;SDS011;33517;49.866;8.320;2023-06-22T13:13:57;6.40;;;1.88;;
12867;SDS011;33517;49.866;8.320;2023-06-22T13:16:49;6.30;;;2.47;;
12867;SDS011;33517;49.866;8.320;2023-06-22T13:19:41;6.53;;;3.15;;
12867;SDS011;33517;49.866;8.320;2023-06-22T13:22:33;3.78;;;2.05;;
12867;SDS011;33517;49.866;8.320;2023-06-22T13:25:30;4.00;;;2.65;;
12867;SDS011;33517;49.866;8.320;2023-06-22T13:28:23;2.72;;;2.33;;
12867;SDS011;33517;49.866;8.320;2023-06-22T13:31:15;1.92;;;1.73;;
12867;SDS011;33517;49.866;8.320;2023-06-22T13:34:06;2.53;;;2.08;;
12867;SDS011;33517;49.866;8.320;2023-06-22T13:36:58;5.82;;;3.30;;
12867;SDS011;33517;49.866;8.320;2023-06-22T13:39:50;1.92;;;1.73;;
12867;SDS011;33517;49.866;8.320;2023-06-22T13:42:42;2.13;;;1.63;;
12867;SDS011;33517;49.866;8.320;2023-06-22T13:45:35;3.35;;;2.17;;
12867;SDS011;33517;49.866;8.320;2023-06-22T13:48:27;4.60;;;2.53;;
12867;SDS011;33517;49.866;8.320;2023-06-22T13:51:19;4.47;;;2.70;;
12867;SDS011;33517;49.866;8.320;2023-06-22T13:54:11;2.00;;;1.90;;
12867;SDS011;33517;49.866;8.320;2023-06-22T13:57:03;2.50;;;2.15;;
12867;SDS011;33517;49.866;8.320;2023-06-22T13:59:55;4.57;;;1.88;;
12867;SDS011;33517;49.866;8.320;2023-06-22T14:02:48;2.75;;;2.00;;
12867;SDS011;33517;49.866;8.320;2023-06-22T14:05:40;8.88;;;2.10;;
12867;SDS011;33517;49.866;8.320;2023-06-22T14:08:32;2.47;;;2.08;;
12867;SDS011;33517;49.866;8.320;2023-06-22T14:11:24;4.80;;;1.88;;
12867;SDS011;33517;49.866;8.320;2023-06-22T14:14:16;2.97;;;2.10;;
12867;SDS011;33517;49.866;8.320;2023-06-22T14:17:08;3.25;;;1.52;;
12867;SDS011;33517;49.866;8.320;2023-06-22T14:20:01;3.30;;;2.05;;
12867;SDS011;33517;49.866;8.320;2023-06-22T14:22:53;5.35;;;2.50;;
12867;SDS011;33517;49.866;8.320;2023-06-22T14:25:45;5.22;;;2.60;;
12867;SDS011;33517;49.866;8.320;2023-06-22T14:28:37;2.38;;;2.17;;
12867;SDS011;33517;49.866;8.320;2023-06-22T14:31:28;2.22;;;1.58;;
12867;SDS011;33517;49.866;8.320;2023-06-22T14:34:20;11.20;;;2.22;;
12867;SDS011;33517;49.866;8.320;2023-06-22T14:37:14;3.92;;;2.28;;
12867;SDS011;33517;49.866;8.320;2023-06-22T14:40:06;5.10;;;2.25;;
12867;SDS011;33517;49.866;8.320;2023-06-22T14:42:59;2.50;;;2.10;;
12867;SDS011;33517;49.866;8.320;2023-06-22T14:45:50;5.97;;;2.75;;
12867;SDS011;33517;49.866;8.320;2023-06-22T14:48:42;2.95;;;2.05;;
12867;SDS011;33517;49.866;8.320;2023-06-22T14:51:34;3.85;;;2.30;;
12867;SDS011;33517;49.866;8.320;2023-06-22T14:54:27;3.08;;;1.48;;
12867;SDS011;33517;49.866;8.320;2023-06-22T14:57:19;1.77;;;1.52;;
12867;SDS011;33517;49.866;8.320;2023-06-22T15:00:13;3.25;;;2.30;;
12867;SDS011;33517;49.866;8.320;2023-06-22T15:03:05;2.30;;;2.03;;
12867;SDS011;33517;49.866;8.320;2023-06-22T15:06:01;5.40;;;2.28;;
12867;SDS011;33517;49.866;8.320;2023-06-22T15:08:53;9.73;;;2.58;;
12867;SDS011;33517;49.866;8.320;2023-06-22T15:11:46;4.45;;;1.42;;
12867;SDS011;33517;49.866;8.320;2023-06-22T15:14:39;3.38;;;2.25;;
12867;SDS011;33517;49.866;8.320;2023-06-22T15:17:31;7.53;;;2.50;;
12867;SDS011;33517;49.866;8.320;2023-06-22T15:20:23;2.05;;;1.63;;
12867;SDS011;33517;49.866;8.320;2023-06-22T15:23:15;4.90;;;2.63;;
12867;SDS011;33517;49.866;8.320;2023-06-22T15:26:06;4.10;;;2.50;;
12867;SDS011;33517;49.866;8.320;2023-06-22T15:29:00;2.33;;;1.98;;
12867;SDS011;33517;49.866;8.320;2023-06-22T15:31:52;3.75;;;2.30;;
12867;SDS011;33517;49.866;8.320;2023-06-22T15:34:44;2.38;;;2.17;;
12867;SDS011;33517;49.866;8.320;2023-06-22T15:37:36;2.90;;;2.15;;
12867;SDS011;33517;49.866;8.320;2023-06-22T15:40:27;4.07;;;2.35;;
12867;SDS011;33517;49.866;8.320;2023-06-22T15:43:19;5.97;;;2.50;;
12867;SDS011;33517;49.866;8.320;2023-06-22T15:46:12;2.35;;;1.92;;
12867;SDS011;33517;49.866;8.320;2023-06-22T15:49:06;6.93;;;2.78;;
12867;SDS011;33517;49.866;8.320;2023-06-22T15:51:58;7.00;;;3.08;;
12867;SDS011;33517;49.866;8.320;2023-06-22T15:54:50;4.32;;;2.97;;
12867;SDS011;33517;49.866;8.320;2023-06-22T15:57:44;34.25;;;3.03;;
12867;SDS011;33517;49.866;8.320;2023-06-22T16:00:37;4.82;;;1.40;;
12867;SDS011;33517;49.866;8.320;2023-06-22T16:03:30;10.82;;;2.80;;
12867;SDS011;33517;49.866;8.320;2023-06-22T16:06:25;3.00;;;1.95;;
12867;SDS011;33517;49.866;8.320;2023-06-22T16:09:17;1.15;;;1.10;;
12867;SDS011;33517;49.866;8.320;2023-06-22T16:12:08;2.40;;;1.35;;
12867;SDS011;33517;49.866;8.320;2023-06-22T16:15:00;1.50;;;1.40;;
12867;SDS011;33517;49.866;8.320;2023-06-22T16:17:52;3.63;;;2.00;;
12867;SDS011;33517;49.866;8.320;2023-06-22T16:20:45;2.20;;;1.45;;
12867;SDS011;33517;49.866;8.320;2023-06-22T16:23:37;2.90;;;1.38;;
12867;SDS011;33517;49.866;8.320;2023-06-22T16:26:34;3.42;;;1.90;;
12867;SDS011;33517;49.866;8.320;2023-06-22T16:29:29;1.63;;;1.30;;
12867;SDS011;33517;49.866;8.320;2023-06-22T16:32:21;1.92;;;1.58;;
12867;SDS011;33517;49.866;8.320;2023-06-22T16:35:13;2.45;;;1.90;;
12867;SDS011;33517;49.866;8.320;2023-06-22T16:38:07;3.95;;;1.83;;
12867;SDS011;33517;49.866;8.320;2023-06-22T16:40:58;5.57;;;2.47;;
12867;SDS011;33517;49.866;8.320;2023-06-22T16:43:51;2.47;;;2.08;;
12867;SDS011;33517;49.866;8.320;2023-06-22T16:46:43;3.30;;;2.08;;
12867;SDS011;33517;49.866;8.320;2023-06-22T16:49:35;8.35;;;2.22;;
12867;SDS011;33517;49.866;8.320;2023-06-22T16:52:27;7.63;;;3.05;;
12867;SDS011;33517;49.866;8.320;2023-06-22T16:55:21;6.35;;;1.85;;
12867;SDS011;33517;49.866;8.320;2023-06-22T16:58:14;2.53;;;1.73;;
12867;SDS011;33517;49.866;8.320;2023-06-22T17:01:07;4.85;;;3.90;;
12867;SDS011;33517;49.866;8.320;2023-06-22T17:04:01;4.43;;;1.88;;
12867;SDS011;33517;49.866;8.320;2023-06-22T17:06:58;4.82;;;1.95;;
12867;SDS011;33517;49.866;8.320;2023-06-22T17:09:54;4.05;;;2.47;;
12867;SDS011;33517;49.866;8.320;2023-06-22T17:12:49;2.30;;;1.77;;
12867;SDS011;33517;49.866;8.320;2023-06-22T17:15:41;4.07;;;2.28;;
12867;SDS011;33517;49.866;8.320;2023-06-22T17:18:34;2.10;;;1.48;;
12867;SDS011;33517;49.866;8.320;2023-06-22T17:21:27;2.78;;;2.42;;
12867;SDS011;33517;49.866;8.320;2023-06-22T17:24:20;2.70;;;1.80;;